Time;durP1;ratioP1;P1;durP2;ratioP2;P2;SDS_P1;SDS_P2;PMS_P1;PMS_P2;Temp;Humidity;BMP_temperature;BMP_pressure;BME280_temperature;BME280_humidity;BME280_pressure;Samples;Min_cycle;Max_cycle;Signal;HPM_P1;HPM_P2
2024/01/30 00:03:14;;;;;;;;;;;16.40;55.70;;;;;;10127635;28;95173;-69
2024/01/30 00:08:17;;;;;;;;;;;16.40;55.80;;;;;;10116177;28;93535;-68
2024/01/30 00:13:19;;;;;;;;;;;16.40;55.60;;;;;;10138410;28;92529;-68
2024/01/30 00:18:21;;;;;;;;;;;16.40;55.20;;;;;;10117634;28;92899;-68
2024/01/30 00:23:24;;;;;;;;;;;16.40;55.20;;;;;;10135770;28;94487;-68
2024/01/30 00:28:26;;;;;;;;;;;16.50;55.00;;;;;;10106920;28;96228;-69
2024/01/30 00:33:27;;;;;;;;;;;16.40;54.80;;;;;;10111696;28;94479;-69
2024/01/30 00:38:29;;;;;;;;;;;16.50;54.60;;;;;;10105716;28;94821;-68
2024/01/30 00:43:31;;;;;;;;;;;16.40;54.30;;;;;;10113645;28;94867;-69
2024/01/30 00:48:33;;;;;;;;;;;16.50;54.20;;;;;;10113365;28;94006;-68
2024/01/30 00:53:35;;;;;;;;;;;16.40;54.60;;;;;;10122017;28;94431;-68
2024/01/30 00:58:37;;;;;;;;;;;16.40;55.20;;;;;;10093205;28;94038;-69
2024/01/30 01:03:40;;;;;;;;;;;16.40;55.20;;;;;;10097138;28;94258;-69
2024/01/30 01:08:42;;;;;;;;;;;16.30;54.90;;;;;;10111302;28;93493;-68
2024/01/30 01:13:44;;;;;;;;;;;16.40;54.70;;;;;;10123589;28;94409;-68
2024/01/30 01:18:46;;;;;;;;;;;16.40;54.60;;;;;;10098228;28;96076;-69
2024/01/30 01:23:48;;;;;;;;;;;16.40;54.30;;;;;;10091786;28;93294;-69
2024/01/30 01:28:50;;;;;;;;;;;16.40;54.10;;;;;;10093189;28;93444;-69
2024/01/30 01:33:52;;;;;;;;;;;16.40;54.00;;;;;;10095395;28;93443;-69
2024/01/30 01:38:54;;;;;;;;;;;16.30;53.80;;;;;;10099774;28;93875;-69
2024/01/30 01:43:56;;;;;;;;;;;16.30;53.70;;;;;;10094474;28;93406;-69
2024/01/30 01:48:58;;;;;;;;;;;16.30;54.20;;;;;;10092423;28;93518;-68
2024/01/30 01:54:01;;;;;;;;;;;16.20;54.70;;;;;;10133963;28;93538;-68
2024/01/30 01:59:05;;;;;;;;;;;16.30;54.80;;;;;;10128730;28;94591;-68
2024/01/30 02:04:07;;;;;;;;;;;16.30;54.50;;;;;;10496313;22;94898;-53
2024/01/30 02:09:09;;;;;;;;;;;16.30;54.30;;;;;;10110970;28;97161;-49
2024/01/30 02:14:11;;;;;;;;;;;16.20;54.10;;;;;;10111028;28;93448;-49
2024/01/30 02:19:13;;;;;;;;;;;16.20;54.00;;;;;;10103183;28;94265;-48
2024/01/30 02:24:15;;;;;;;;;;;16.20;53.80;;;;;;10106823;28;94031;-48
2024/01/30 02:29:17;;;;;;;;;;;16.20;53.70;;;;;;10097601;28;93504;-50
2024/01/30 02:34:19;;;;;;;;;;;16.20;53.60;;;;;;10097098;28;94709;-48
2024/01/30 02:39:21;;;;;;;;;;;16.20;53.50;;;;;;10113469;28;93493;-50
2024/01/30 02:44:23;;;;;;;;;;;16.20;54.10;;;;;;10122272;28;93798;-49
2024/01/30 02:49:25;;;;;;;;;;;16.10;55.50;;;;;;10106837;28;94145;-51
2024/01/30 02:54:27;;;;;;;;;;;16.10;54.50;;;;;;10111080;28;94923;-52
2024/01/30 02:59:29;;;;;;;;;;;16.10;54.20;;;;;;10130184;28;97244;-52
2024/01/30 03:04:30;;;;;;;;;;;16.10;54.10;;;;;;10109407;28;94418;-49
2024/01/30 03:09:33;;;;;;;;;;;16.10;53.90;;;;;;10118271;28;94462;-50
2024/01/30 03:14:34;;;;;;;;;;;16.10;53.70;;;;;;10110794;28;94440;-50
2024/01/30 03:19:36;;;;;;;;;;;16.10;53.70;;;;;;10108977;28;94223;-53
2024/01/30 03:24:38;;;;;;;;;;;16.10;53.40;;;;;;10121456;28;94465;-53
2024/01/30 03:29:40;;;;;;;;;;;16.10;53.30;;;;;;10103043;28;94564;-51
2024/01/30 03:34:42;;;;;;;;;;;16.10;53.70;;;;;;10128441;28;92637;-49
2024/01/30 03:39:44;;;;;;;;;;;16.10;54.10;;;;;;10117154;28;92995;-49
2024/01/30 03:44:46;;;;;;;;;;;16.00;54.30;;;;;;10101813;28;93459;-48
2024/01/30 03:49:48;;;;;;;;;;;16.00;54.30;;;;;;10119855;28;96744;-50
2024/01/30 03:54:50;;;;;;;;;;;16.00;54.10;;;;;;10111195;28;94881;-47
2024/01/30 03:59:51;;;;;;;;;;;16.00;53.90;;;;;;10117786;28;93259;-48
2024/01/30 04:04:53;;;;;;;;;;;16.10;53.90;;;;;;10133745;28;93456;-48
2024/01/30 04:09:55;;;;;;;;;;;16.00;53.60;;;;;;10096337;28;93236;-49
2024/01/30 04:14:57;;;;;;;;;;;16.10;53.50;;;;;;10110178;28;93656;-48
2024/01/30 04:19:59;;;;;;;;;;;16.10;53.30;;;;;;10120888;28;93481;-52
2024/01/30 04:25:02;;;;;;;;;;;16.10;53.20;;;;;;10104232;28;93057;-51
2024/01/30 04:30:04;;;;;;;;;;;16.10;53.50;;;;;;10113121;28;94956;-51
2024/01/30 04:35:06;;;;;;;;;;;16.00;53.80;;;;;;10115016;28;94453;-47
2024/01/30 04:40:12;;;;;;;;;;;16.00;54.20;;;;;;10106495;28;96794;-47
2024/01/30 04:45:14;;;;;;;;;;;16.00;54.10;;;;;;10120229;28;93706;-47
2024/01/30 04:50:16;;;;;;;;;;;16.00;54.10;;;;;;10115131;28;94748;-48
2024/01/30 04:55:18;;;;;;;;;;;16.10;53.80;;;;;;10111446;28;96066;-52
2024/01/30 05:00:23;;;;;;;;;;;16.20;53.50;;;;;;10107177;28;93543;-51
2024/01/30 05:05:25;;;;;;;;;;;16.30;53.30;;;;;;10101591;28;94526;-53
2024/01/30 05:10:28;;;;;;;;;;;16.30;53.10;;;;;;10104492;28;93713;-57
2024/01/30 05:15:30;;;;;;;;;;;16.30;53.00;;;;;;10091829;28;92904;-51
2024/01/30 05:20:32;;;;;;;;;;;16.40;52.90;;;;;;10121948;28;95572;-51
2024/01/30 05:25:34;;;;;;;;;;;16.60;52.90;;;;;;10107271;28;94535;-52
2024/01/30 05:30:36;;;;;;;;;;;16.80;53.20;;;;;;10111512;28;96177;-50
2024/01/30 05:35:38;;;;;;;;;;;16.90;53.00;;;;;;10115410;28;93419;-47
2024/01/30 05:40:39;;;;;;;;;;;17.00;53.00;;;;;;10108580;28;94417;-52
2024/01/30 05:45:41;;;;;;;;;;;17.20;52.80;;;;;;10111657;28;93369;-50
2024/01/30 05:50:43;;;;;;;;;;;17.30;52.50;;;;;;10108083;28;93661;-50
2024/01/30 05:55:45;;;;;;;;;;;17.40;52.40;;;;;;10103653;28;93478;-50
2024/01/30 06:00:47;;;;;;;;;;;17.30;52.40;;;;;;10115333;28;93811;-50
2024/01/30 06:05:50;;;;;;;;;;;17.30;54.00;;;;;;10117243;28;92798;-49
2024/01/30 06:10:52;;;;;;;;;;;17.20;54.30;;;;;;10113570;28;93857;-48
2024/01/30 06:15:53;;;;;;;;;;;17.20;54.40;;;;;;10122077;28;94845;-54
2024/01/30 06:20:55;;;;;;;;;;;17.10;54.60;;;;;;10091165;28;96083;-52
2024/01/30 06:25:57;;;;;;;;;;;17.10;54.60;;;;;;10103414;28;94463;-50
2024/01/30 06:31:01;;;;;;;;;;;17.00;56.70;;;;;;10108377;28;93423;-52
2024/01/30 06:36:03;;;;;;;;;;;16.90;56.80;;;;;;10115704;28;94783;-53
2024/01/30 06:41:05;;;;;;;;;;;17.00;58.40;;;;;;10105337;28;92545;-52
2024/01/30 06:46:06;;;;;;;;;;;17.10;58.80;;;;;;10105062;28;94529;-52
2024/01/30 06:51:08;;;;;;;;;;;17.10;57.60;;;;;;10107218;28;93874;-51
2024/01/30 06:56:10;;;;;;;;;;;17.20;56.70;;;;;;10120683;28;94966;-52
2024/01/30 07:01:12;;;;;;;;;;;17.20;56.20;;;;;;10106479;28;93573;-51
2024/01/30 07:06:14;;;;;;;;;;;17.30;57.50;;;;;;10092444;28;95299;-52
2024/01/30 07:11:21;;;;;;;;;;;17.30;59.10;;;;;;10107298;28;96132;-52
2024/01/30 07:16:23;;;;;;;;;;;17.30;58.50;;;;;;10102124;28;93848;-52
2024/01/30 07:21:28;;;;;;;;;;;17.30;58.30;;;;;;10105946;28;94175;-53
2024/01/30 07:26:30;;;;;;;;;;;17.30;58.40;;;;;;10099404;28;93405;-54
2024/01/30 07:31:32;;;;;;;;;;;17.30;58.30;;;;;;10092835;28;93791;-52
2024/01/30 07:36:35;;;;;;;;;;;17.40;58.50;;;;;;10112306;28;94538;-52
2024/01/30 07:41:37;;;;;;;;;;;17.40;58.20;;;;;;10097255;28;93631;-49
2024/01/30 07:46:39;;;;;;;;;;;17.40;58.10;;;;;;10097953;28;95178;-53
2024/01/30 07:51:40;;;;;;;;;;;17.30;58.60;;;;;;10124752;28;94564;-53
2024/01/30 07:56:42;;;;;;;;;;;17.30;58.60;;;;;;10111409;28;93863;-53
2024/01/30 08:01:44;;;;;;;;;;;17.20;58.70;;;;;;10113863;28;96743;-51
2024/01/30 08:06:46;;;;;;;;;;;17.20;58.50;;;;;;10110685;28;93594;-52
2024/01/30 08:11:48;;;;;;;;;;;17.30;58.50;;;;;;10094559;28;93242;-54
2024/01/30 08:16:50;;;;;;;;;;;17.30;58.30;;;;;;10106428;28;94878;-51
2024/01/30 08:21:52;;;;;;;;;;;17.30;58.30;;;;;;10098970;28;92731;-53
2024/01/30 08:26:54;;;;;;;;;;;17.20;58.20;;;;;;10104483;28;93438;-52
2024/01/30 08:31:56;;;;;;;;;;;17.20;58.20;;;;;;10102703;28;94072;-51
2024/01/30 08:36:58;;;;;;;;;;;17.10;58.10;;;;;;10116645;28;94241;-52
2024/01/30 08:42:00;;;;;;;;;;;17.10;58.30;;;;;;10102077;28;93315;-53
2024/01/30 08:47:03;;;;;;;;;;;17.00;58.20;;;;;;10114629;28;94618;-53
2024/01/30 08:52:05;;;;;;;;;;;17.00;58.40;;;;;;10087132;28;95990;-53
2024/01/30 08:57:07;;;;;;;;;;;16.90;58.40;;;;;;10100833;28;94459;-52
2024/01/30 09:02:10;;;;;;;;;;;16.90;58.50;;;;;;10111312;28;94179;-52
2024/01/30 09:07:13;;;;;;;;;;;16.80;58.60;;;;;;10112134;28;93995;-52
2024/01/30 09:12:15;;;;;;;;;;;16.80;58.70;;;;;;10094356;28;94732;-52
2024/01/30 09:17:17;;;;;;;;;;;16.80;58.90;;;;;;10127039;28;93267;-51
2024/01/30 09:22:19;;;;;;;;;;;16.70;58.60;;;;;;10102587;28;94564;-52
2024/01/30 09:27:21;;;;;;;;;;;16.70;58.50;;;;;;10100702;28;93824;-53
2024/01/30 09:32:23;;;;;;;;;;;16.80;58.50;;;;;;10099612;28;93496;-53
2024/01/30 09:37:25;;;;;;;;;;;16.80;58.30;;;;;;10110951;28;93500;-51
2024/01/30 09:42:34;;;;;;;;;;;16.80;58.20;;;;;;10120551;28;96882;-51
2024/01/30 09:47:43;;;;;;;;;;;16.80;58.20;;;;;;10112460;28;94415;-52
2024/01/30 09:52:46;;;;;;;;;;;16.80;58.20;;;;;;10113837;28;93440;-51
2024/01/30 09:57:48;;;;;;;;;;;16.80;58.20;;;;;;10121572;28;94451;-53
2024/01/30 10:02:50;;;;;;;;;;;16.80;58.40;;;;;;10096204;28;94649;-48
2024/01/30 10:07:56;;;;;;;;;;;16.70;58.40;;;;;;10102689;28;94761;-50
2024/01/30 10:12:58;;;;;;;;;;;16.70;58.50;;;;;;10105745;28;94042;-49
2024/01/30 10:18:03;;;;;;;;;;;16.60;58.80;;;;;;10098797;28;93920;-53
2024/01/30 10:23:05;;;;;;;;;;;16.60;58.70;;;;;;10098955;28;95251;-46
2024/01/30 10:28:06;;;;;;;;;;;16.60;58.90;;;;;;10101455;28;94518;-47
2024/01/30 10:33:08;;;;;;;;;;;16.50;58.90;;;;;;10103139;28;97388;-51
2024/01/30 10:38:11;;;;;;;;;;;16.50;59.10;;;;;;10102977;28;94238;-50
2024/01/30 10:43:15;;;;;;;;;;;16.50;59.00;;;;;;10110691;28;93457;-52
2024/01/30 10:48:18;;;;;;;;;;;16.40;59.10;;;;;;10099803;28;94035;-51
2024/01/30 10:53:24;;;;;;;;;;;16.40;59.20;;;;;;10112741;28;95216;-52
2024/01/30 10:58:27;;;;;;;;;;;16.40;59.20;;;;;;10101035;28;94776;-51
2024/01/30 11:03:29;;;;;;;;;;;16.40;59.20;;;;;;10114397;28;92995;-52
2024/01/30 11:08:34;;;;;;;;;;;16.30;59.20;;;;;;10099526;28;93748;-49
2024/01/30 11:13:36;;;;;;;;;;;16.30;59.20;;;;;;10103716;28;94158;-50
2024/01/30 11:18:38;;;;;;;;;;;16.30;59.20;;;;;;10098233;28;94150;-51
2024/01/30 11:23:40;;;;;;;;;;;16.30;59.10;;;;;;10100631;28;95734;-52
2024/01/30 11:28:42;;;;;;;;;;;16.30;59.20;;;;;;10097682;28;93446;-53
2024/01/30 11:33:44;;;;;;;;;;;16.30;59.10;;;;;;10102838;28;93936;-51
2024/01/30 11:38:46;;;;;;;;;;;16.30;59.10;;;;;;10096928;28;94080;-53
2024/01/30 11:43:52;;;;;;;;;;;16.30;59.10;;;;;;10123943;28;94636;-50
2024/01/30 11:48:55;;;;;;;;;;;16.30;59.20;;;;;;10097393;28;94305;-51
2024/01/30 11:53:57;;;;;;;;;;;16.20;59.10;;;;;;10096633;28;94895;-53
2024/01/30 11:59:00;;;;;;;;;;;16.30;59.20;;;;;;10093214;28;92746;-52
2024/01/30 12:04:02;;;;;;;;;;;16.20;59.10;;;;;;10108277;28;93803;-49
2024/01/30 12:09:05;;;;;;;;;;;16.30;59.10;;;;;;10118177;28;94156;-53
2024/01/30 12:14:07;;;;;;;;;;;16.30;59.10;;;;;;10108191;28;95871;-54
2024/01/30 12:19:09;;;;;;;;;;;16.20;59.00;;;;;;10085651;28;94270;-51
2024/01/30 12:24:11;;;;;;;;;;;16.20;59.00;;;;;;10099189;28;93441;-50
2024/01/30 12:29:14;;;;;;;;;;;16.20;59.00;;;;;;10117823;28;93980;-55
2024/01/30 12:34:17;;;;;;;;;;;16.20;59.00;;;;;;10108681;28;94390;-48
2024/01/30 12:39:19;;;;;;;;;;;16.10;59.10;;;;;;10106949;28;94096;-49
2024/01/30 12:44:21;;;;;;;;;;;16.10;59.00;;;;;;10112102;28;93589;-53
2024/01/30 12:49:23;;;;;;;;;;;16.10;59.10;;;;;;10109182;28;93747;-50
2024/01/30 12:54:24;;;;;;;;;;;16.10;59.00;;;;;;10101582;28;93482;-53
2024/01/30 12:59:26;;;;;;;;;;;16.10;59.10;;;;;;10112917;28;94504;-51
2024/01/30 13:04:28;;;;;;;;;;;16.10;59.10;;;;;;10121354;28;95852;-47
2024/01/30 13:09:34;;;;;;;;;;;16.00;59.00;;;;;;10100792;28;94291;-49
2024/01/30 13:14:36;;;;;;;;;;;16.10;59.10;;;;;;10089643;28;93452;-51
2024/01/30 13:19:37;;;;;;;;;;;16.00;59.00;;;;;;10101306;28;94472;-52
2024/01/30 13:24:39;;;;;;;;;;;16.00;59.20;;;;;;10107522;28;94437;-51
2024/01/30 13:29:41;;;;;;;;;;;16.00;59.20;;;;;;10107410;28;93397;-50
2024/01/30 13:34:43;;;;;;;;;;;16.00;59.20;;;;;;10101539;28;93794;-53
2024/01/30 13:39:45;;;;;;;;;;;16.00;59.20;;;;;;10094536;28;94608;-52
2024/01/30 13:44:47;;;;;;;;;;;16.00;59.20;;;;;;10112509;28;93632;-52
2024/01/30 13:49:49;;;;;;;;;;;16.00;59.20;;;;;;10101571;28;95082;-53
2024/01/30 13:54:51;;;;;;;;;;;16.00;59.30;;;;;;10109146;28;96935;-51
2024/01/30 13:59:53;;;;;;;;;;;16.00;59.40;;;;;;10100287;28;93671;-51
2024/01/30 14:04:55;;;;;;;;;;;15.90;59.30;;;;;;10110176;28;94522;-53
2024/01/30 14:09:57;;;;;;;;;;;16.00;59.40;;;;;;10088581;28;94811;-52
2024/01/30 14:14:58;;;;;;;;;;;15.90;59.30;;;;;;10112361;28;94261;-51
2024/01/30 14:20:04;;;;;;;;;;;15.90;59.40;;;;;;10103765;28;92611;-50
2024/01/30 14:25:06;;;;;;;;;;;15.90;59.40;;;;;;10098736;28;94621;-51
2024/01/30 14:30:11;;;;;;;;;;;15.90;59.30;;;;;;10106251;28;92765;-53
2024/01/30 14:35:13;;;;;;;;;;;15.90;59.30;;;;;;10111561;28;95975;-50
2024/01/30 14:40:15;;;;;;;;;;;15.90;59.40;;;;;;10109277;28;95145;-50
2024/01/30 14:45:17;;;;;;;;;;;15.90;59.20;;;;;;10094558;28;96914;-54
2024/01/30 14:50:19;;;;;;;;;;;16.00;59.10;;;;;;10112044;28;93282;-53
2024/01/30 14:55:21;;;;;;;;;;;16.10;58.90;;;;;;10131153;28;93207;-53
2024/01/30 15:00:23;;;;;;;;;;;16.10;58.70;;;;;;10113096;28;94940;-52
2024/01/30 15:05:24;;;;;;;;;;;16.20;58.60;;;;;;10094899;28;94555;-53
2024/01/30 15:10:26;;;;;;;;;;;16.20;58.50;;;;;;10100826;28;93595;-54
2024/01/30 15:15:30;;;;;;;;;;;16.10;58.50;;;;;;10122411;28;94525;-52
2024/01/30 15:20:32;;;;;;;;;;;16.20;58.60;;;;;;10112328;28;93343;-52
2024/01/30 15:25:34;;;;;;;;;;;16.20;58.70;;;;;;10111090;28;93676;-63
2024/01/30 15:30:36;;;;;;;;;;;16.10;58.60;;;;;;10112043;28;94897;-53
2024/01/30 15:35:38;;;;;;;;;;;16.10;58.70;;;;;;10101550;28;96948;-55
2024/01/30 15:40:40;;;;;;;;;;;16.10;58.80;;;;;;10106361;28;94434;-52
2024/01/30 15:45:42;;;;;;;;;;;16.10;58.90;;;;;;10110372;28;95055;-50
2024/01/30 15:50:44;;;;;;;;;;;16.10;59.00;;;;;;10113888;28;95179;-51
2024/01/30 15:55:46;;;;;;;;;;;16.00;58.90;;;;;;10107908;28;94442;-60
2024/01/30 16:00:48;;;;;;;;;;;16.00;59.00;;;;;;10098130;28;96654;-52
2024/01/30 16:05:50;;;;;;;;;;;16.00;59.00;;;;;;10107120;28;93440;-51
2024/01/30 16:10:51;;;;;;;;;;;15.90;59.00;;;;;;10113403;28;92583;-52
2024/01/30 16:15:53;;;;;;;;;;;16.00;59.10;;;;;;10105678;28;93449;-49
2024/01/30 16:20:55;;;;;;;;;;;15.90;59.10;;;;;;10115243;28;94681;-52
2024/01/30 16:25:57;;;;;;;;;;;15.90;59.10;;;;;;10093561;28;95877;-51
2024/01/30 16:31:02;;;;;;;;;;;15.90;59.10;;;;;;10113862;28;94263;-53
2024/01/30 16:36:04;;;;;;;;;;;15.80;59.20;;;;;;10114499;28;94452;-52
2024/01/30 16:41:06;;;;;;;;;;;15.80;59.20;;;;;;10098439;28;94487;-52
2024/01/30 16:46:08;;;;;;;;;;;15.90;59.10;;;;;;10110798;28;94477;-49
2024/01/30 16:51:10;;;;;;;;;;;16.00;59.00;;;;;;10120949;28;92785;-53
2024/01/30 16:56:12;;;;;;;;;;;16.10;58.80;;;;;;10118937;28;94490;-49
2024/01/30 17:01:13;;;;;;;;;;;16.10;58.70;;;;;;10103676;28;92338;-51
2024/01/30 17:06:15;;;;;;;;;;;16.10;58.60;;;;;;10125390;28;94448;-50
2024/01/30 17:11:18;;;;;;;;;;;16.10;58.50;;;;;;10105181;28;94981;-53
2024/01/30 17:16:20;;;;;;;;;;;16.00;58.60;;;;;;10091292;28;95863;-52
2024/01/30 17:21:23;;;;;;;;;;;16.00;58.50;;;;;;10094668;28;94952;-51
2024/01/30 17:26:25;;;;;;;;;;;16.00;58.60;;;;;;10104348;28;92816;-51
2024/01/30 17:31:27;;;;;;;;;;;15.90;58.60;;;;;;10109754;28;94610;-53
2024/01/30 17:36:29;;;;;;;;;;;15.90;58.70;;;;;;10120282;28;93861;-53
2024/01/30 17:41:32;;;;;;;;;;;16.00;58.80;;;;;;10114573;28;92669;-68
2024/01/30 17:46:34;;;;;;;;;;;15.90;58.70;;;;;;10104473;28;94474;-51
2024/01/30 17:51:39;;;;;;;;;;;15.90;58.90;;;;;;10096160;28;92303;-50
2024/01/30 17:56:41;;;;;;;;;;;15.90;58.80;;;;;;10098370;28;93345;-51
2024/01/30 18:01:46;;;;;;;;;;;15.80;58.90;;;;;;10094017;28;94455;-50
2024/01/30 18:06:52;;;;;;;;;;;15.80;58.80;;;;;;10097722;28;96881;-49
2024/01/30 18:11:54;;;;;;;;;;;15.80;58.90;;;;;;10096455;28;93652;-52
2024/01/30 18:16:56;;;;;;;;;;;15.80;58.90;;;;;;10113763;28;94600;-51
2024/01/30 18:22:00;;;;;;;;;;;15.70;58.90;;;;;;10118538;28;93702;-52
2024/01/30 18:27:01;;;;;;;;;;;15.80;59.10;;;;;;10100582;28;93547;-51
2024/01/30 18:32:03;;;;;;;;;;;15.70;59.00;;;;;;10106437;28;93461;-49
2024/01/30 18:37:06;;;;;;;;;;;15.80;59.10;;;;;;10123438;28;94419;-51
2024/01/30 18:42:08;;;;;;;;;;;15.90;58.90;;;;;;10100247;28;93891;-52
2024/01/30 18:47:10;;;;;;;;;;;16.00;58.80;;;;;;10099755;28;94438;-51
2024/01/30 18:52:12;;;;;;;;;;;16.00;58.60;;;;;;10098046;28;92935;-52
2024/01/30 18:57:14;;;;;;;;;;;16.10;58.50;;;;;;10085231;28;96072;-52
2024/01/30 19:02:16;;;;;;;;;;;16.00;58.40;;;;;;10110135;28;93457;-54
2024/01/30 19:07:18;;;;;;;;;;;16.00;58.40;;;;;;10109828;28;94331;-51
2024/01/30 19:12:19;;;;;;;;;;;16.00;58.40;;;;;;10095533;28;93825;-48
2024/01/30 19:17:24;;;;;;;;;;;16.00;58.40;;;;;;10102364;28;94841;-52
2024/01/30 19:22:25;;;;;;;;;;;16.00;58.30;;;;;;10119374;28;94154;-50
2024/01/30 19:27:27;;;;;;;;;;;16.00;58.70;;;;;;10113983;28;93664;-53
2024/01/30 19:32:29;;;;;;;;;;;16.00;61.80;;;;;;10113779;28;93714;-54
2024/01/30 19:37:34;;;;;;;;;;;16.20;59.50;;;;;;10108619;28;94605;-51
2024/01/30 19:42:36;;;;;;;;;;;16.40;59.00;;;;;;10105577;28;93492;-53
2024/01/30 19:47:38;;;;;;;;;;;16.70;58.60;;;;;;10122255;28;96873;-51
2024/01/30 19:52:42;;;;;;;;;;;17.00;58.10;;;;;;10115453;28;93481;-47
2024/01/30 19:57:44;;;;;;;;;;;17.20;57.60;;;;;;10109121;28;93532;-51
2024/01/30 20:02:46;;;;;;;;;;;17.40;57.20;;;;;;10117594;28;93608;-50
2024/01/30 20:07:48;;;;;;;;;;;17.70;58.00;;;;;;10103893;28;93445;-52
2024/01/30 20:12:50;;;;;;;;;;;17.80;56.50;;;;;;10110179;28;93538;-51
2024/01/30 20:17:52;;;;;;;;;;;18.00;56.10;;;;;;10103054;28;93906;-54
2024/01/30 20:22:54;;;;;;;;;;;18.10;56.00;;;;;;10116066;28;93819;-53
2024/01/30 20:27:56;;;;;;;;;;;18.10;55.90;;;;;;10108171;28;93453;-53
2024/01/30 20:32:58;;;;;;;;;;;18.10;56.10;;;;;;10113241;28;93027;-53
2024/01/30 20:38:01;;;;;;;;;;;18.00;56.10;;;;;;10118631;28;96148;-53
2024/01/30 20:43:03;;;;;;;;;;;18.00;56.20;;;;;;10107039;28;94778;-50
2024/01/30 20:48:05;;;;;;;;;;;18.00;56.30;;;;;;10111507;28;93642;-51
2024/01/30 20:53:08;;;;;;;;;;;17.90;56.30;;;;;;10116654;28;94057;-53
2024/01/30 20:58:10;;;;;;;;;;;17.80;56.60;;;;;;10116266;28;94529;-52
2024/01/30 21:03:11;;;;;;;;;;;17.70;56.80;;;;;;10104646;28;93494;-53
2024/01/30 21:08:13;;;;;;;;;;;17.60;57.00;;;;;;10111163;28;94511;-53
2024/01/30 21:13:15;;;;;;;;;;;17.50;57.20;;;;;;10121350;28;92730;-53
2024/01/30 21:18:17;;;;;;;;;;;17.40;57.40;;;;;;10121425;28;94890;-52
2024/01/30 21:23:19;;;;;;;;;;;17.30;57.60;;;;;;10111788;28;93542;-53
2024/01/30 21:28:23;;;;;;;;;;;17.30;57.80;;;;;;10117752;28;116135;-52
2024/01/30 21:33:25;;;;;;;;;;;17.20;58.00;;;;;;10114302;28;93529;-51
2024/01/30 21:38:27;;;;;;;;;;;17.10;58.10;;;;;;10118431;28;93587;-53
2024/01/30 21:43:29;;;;;;;;;;;17.10;58.20;;;;;;10124313;28;93441;-58
2024/01/30 21:48:31;;;;;;;;;;;17.00;58.20;;;;;;10121705;28;94498;-53
2024/01/30 21:53:33;;;;;;;;;;;16.90;58.20;;;;;;10124514;28;94464;-55
2024/01/30 21:58:35;;;;;;;;;;;16.80;58.30;;;;;;10122984;28;96275;-52
2024/01/30 22:03:38;;;;;;;;;;;16.70;58.30;;;;;;10123748;28;93925;-54
2024/01/30 22:08:41;;;;;;;;;;;16.70;58.40;;;;;;10122792;28;94490;-52
2024/01/30 22:13:42;;;;;;;;;;;16.60;58.40;;;;;;10114267;28;94627;-53
2024/01/30 22:18:44;;;;;;;;;;;16.60;58.40;;;;;;10115454;28;96872;-52
2024/01/30 22:23:46;;;;;;;;;;;16.60;58.40;;;;;;10119239;28;94113;-52
2024/01/30 22:28:48;;;;;;;;;;;16.50;58.40;;;;;;10092861;28;94480;-53
2024/01/30 22:33:50;;;;;;;;;;;16.50;58.50;;;;;;10088380;28;93476;-52
2024/01/30 22:38:52;;;;;;;;;;;16.50;58.40;;;;;;10096072;28;93524;-53
2024/01/30 22:43:54;;;;;;;;;;;16.40;58.40;;;;;;10111098;28;93443;-52
2024/01/30 22:48:56;;;;;;;;;;;16.40;58.40;;;;;;10121565;28;94166;-53
2024/01/30 22:53:58;;;;;;;;;;;16.40;58.30;;;;;;10121087;28;93330;-52
2024/01/30 22:59:00;;;;;;;;;;;16.30;58.40;;;;;;10121009;28;94398;-52
2024/01/30 23:04:02;;;;;;;;;;;16.30;58.40;;;;;;10118367;28;93456;-53
2024/01/30 23:09:03;;;;;;;;;;;16.30;58.60;;;;;;10110238;28;96303;-52
2024/01/30 23:14:05;;;;;;;;;;;16.20;58.40;;;;;;10121238;28;93774;-53
2024/01/30 23:19:07;;;;;;;;;;;16.20;58.00;;;;;;10105847;28;93433;-51
2024/01/30 23:24:09;;;;;;;;;;;16.20;57.60;;;;;;10117573;28;93364;-54
2024/01/30 23:29:11;;;;;;;;;;;16.20;57.20;;;;;;10116092;28;93461;-56
2024/01/30 23:34:13;;;;;;;;;;;16.20;56.90;;;;;;10099599;28;93960;-53
2024/01/30 23:39:15;;;;;;;;;;;16.20;56.70;;;;;;10110913;28;93616;-53
2024/01/30 23:44:17;;;;;;;;;;;16.20;56.40;;;;;;10120129;28;93609;-54
2024/01/30 23:49:19;;;;;;;;;;;16.10;56.10;;;;;;10116178;28;93144;-54
2024/01/30 23:54:21;;;;;;;;;;;16.10;56.00;;;;;;10120333;28;93700;-54
2024/01/30 23:59:23;;;;;;;;;;;16.10;56.60;;;;;;10105938;28;95898;-53
